sensor_id;sensor_type;location;lat;lon;timestamp;temperature;humidity
584;HTU21D;27024;54.068;12.116;2023-10-31T00:02:09;10.00;118.99
584;HTU21D;27024;54.068;12.116;2023-10-31T00:04:36;9.95;118.99
584;HTU21D;27024;54.068;12.116;2023-10-31T00:07:04;9.86;118.99
584;HTU21D;27024;54.068;12.116;2023-10-31T00:09:31;9.83;118.99
584;HTU21D;27024;54.068;12.116;2023-10-31T00:11:58;9.74;118.99
584;HTU21D;27024;54.068;12.116;2023-10-31T00:14:26;9.76;118.99
584;HTU21D;27024;54.068;12.116;2023-10-31T00:17:00;9.70;118.99
584;HTU21D;27024;54.068;12.116;2023-10-31T00:19:27;9.76;118.99
584;HTU21D;27024;54.068;12.116;2023-10-31T00:21:54;9.77;118.99
584;HTU21D;27024;54.068;12.116;2023-10-31T00:24:21;9.75;118.99
584;HTU21D;27024;54.068;12.116;2023-10-31T00:26:47;9.83;118.99
584;HTU21D;27024;54.068;12.116;2023-10-31T00:29:14;9.79;118.99
584;HTU21D;27024;54.068;12.116;2023-10-31T00:31:41;10.14;118.99
584;HTU21D;27024;54.068;12.116;2023-10-31T00:34:09;9.89;118.99
584;HTU21D;27024;54.068;12.116;2023-10-31T00:36:36;9.76;118.99
584;HTU21D;27024;54.068;12.116;2023-10-31T00:39:03;9.79;118.99
584;HTU21D;27024;54.068;12.116;2023-10-31T00:41:30;9.84;118.99
584;HTU21D;27024;54.068;12.116;2023-10-31T00:43:57;9.85;118.99
584;HTU21D;27024;54.068;12.116;2023-10-31T00:46:24;9.85;118.99
584;HTU21D;27024;54.068;12.116;2023-10-31T00:48:51;9.85;118.99
584;HTU21D;27024;54.068;12.116;2023-10-31T00:51:18;9.90;118.99
584;HTU21D;27024;54.068;12.116;2023-10-31T00:53:45;9.86;118.99
584;HTU21D;27024;54.068;12.116;2023-10-31T00:56:12;9.91;118.99
584;HTU21D;27024;54.068;12.116;2023-10-31T00:58:39;9.83;118.99
584;HTU21D;27024;54.068;12.116;2023-10-31T01:01:06;9.85;118.99
584;HTU21D;27024;54.068;12.116;2023-10-31T01:03:32;9.88;118.99
584;HTU21D;27024;54.068;12.116;2023-10-31T01:05:59;9.84;118.99
584;HTU21D;27024;54.068;12.116;2023-10-31T01:08:26;9.85;118.99
584;HTU21D;27024;54.068;12.116;2023-10-31T01:10:53;9.89;118.99
584;HTU21D;27024;54.068;12.116;2023-10-31T01:13:21;9.79;118.99
584;HTU21D;27024;54.068;12.116;2023-10-31T01:15:47;9.79;118.99
584;HTU21D;27024;54.068;12.116;2023-10-31T01:18:14;9.83;118.99
584;HTU21D;27024;54.068;12.116;2023-10-31T01:20:41;9.84;118.99
584;HTU21D;27024;54.068;12.116;2023-10-31T01:23:08;9.84;118.99
584;HTU21D;27024;54.068;12.116;2023-10-31T01:25:35;9.82;118.99
584;HTU21D;27024;54.068;12.116;2023-10-31T01:28:02;9.83;118.99
584;HTU21D;27024;54.068;12.116;2023-10-31T01:30:29;9.86;118.99
584;HTU21D;27024;54.068;12.116;2023-10-31T01:32:56;9.84;118.99
584;HTU21D;27024;54.068;12.116;2023-10-31T01:35:22;9.82;118.99
584;HTU21D;27024;54.068;12.116;2023-10-31T01:37:49;9.76;118.99
584;HTU21D;27024;54.068;12.116;2023-10-31T01:40:16;9.80;118.99
584;HTU21D;27024;54.068;12.116;2023-10-31T01:42:43;9.84;118.99
584;HTU21D;27024;54.068;12.116;2023-10-31T01:45:10;9.83;118.99
584;HTU21D;27024;54.068;12.116;2023-10-31T01:47:37;9.84;118.99
584;HTU21D;27024;54.068;12.116;2023-10-31T01:50:06;9.89;118.99
584;HTU21D;27024;54.068;12.116;2023-10-31T01:52:33;9.83;118.99
584;HTU21D;27024;54.068;12.116;2023-10-31T01:55:02;9.84;118.99
584;HTU21D;27024;54.068;12.116;2023-10-31T01:57:31;9.81;118.99
584;HTU21D;27024;54.068;12.116;2023-10-31T01:59:58;9.77;118.99
584;HTU21D;27024;54.068;12.116;2023-10-31T02:02:27;9.75;118.99
584;HTU21D;27024;54.068;12.116;2023-10-31T02:04:54;9.72;118.99
584;HTU21D;27024;54.068;12.116;2023-10-31T02:07:21;9.76;118.99
584;HTU21D;27024;54.068;12.116;2023-10-31T02:09:48;9.77;118.99
584;HTU21D;27024;54.068;12.116;2023-10-31T02:12:34;9.74;118.99
584;HTU21D;27024;54.068;12.116;2023-10-31T02:15:02;9.72;118.99
584;HTU21D;27024;54.068;12.116;2023-10-31T02:17:29;9.74;118.99
584;HTU21D;27024;54.068;12.116;2023-10-31T02:19:56;9.72;118.99
584;HTU21D;27024;54.068;12.116;2023-10-31T02:22:23;9.75;118.99
584;HTU21D;27024;54.068;12.116;2023-10-31T02:24:50;9.69;118.99
584;HTU21D;27024;54.068;12.116;2023-10-31T02:27:17;9.70;118.99
584;HTU21D;27024;54.068;12.116;2023-10-31T02:29:44;9.71;118.99
584;HTU21D;27024;54.068;12.116;2023-10-31T02:32:11;9.68;118.99
584;HTU21D;27024;54.068;12.116;2023-10-31T02:34:38;9.75;118.99
584;HTU21D;27024;54.068;12.116;2023-10-31T02:37:05;9.70;118.99
584;HTU21D;27024;54.068;12.116;2023-10-31T02:39:32;9.71;118.99
584;HTU21D;27024;54.068;12.116;2023-10-31T02:41:59;9.76;118.99
584;HTU21D;27024;54.068;12.116;2023-10-31T02:44:26;9.75;118.99
584;HTU21D;27024;54.068;12.116;2023-10-31T02:46:53;9.76;118.99
584;HTU21D;27024;54.068;12.116;2023-10-31T02:49:20;9.77;118.99
584;HTU21D;27024;54.068;12.116;2023-10-31T02:51:47;9.72;118.99
584;HTU21D;27024;54.068;12.116;2023-10-31T02:54:14;9.74;118.99
584;HTU21D;27024;54.068;12.116;2023-10-31T02:56:41;9.72;118.99
584;HTU21D;27024;54.068;12.116;2023-10-31T02:59:08;9.82;118.99
584;HTU21D;27024;54.068;12.116;2023-10-31T03:01:35;9.72;118.99
584;HTU21D;27024;54.068;12.116;2023-10-31T03:04:03;9.71;118.99
584;HTU21D;27024;54.068;12.116;2023-10-31T03:06:30;9.72;118.99
584;HTU21D;27024;54.068;12.116;2023-10-31T03:08:57;9.76;118.99
584;HTU21D;27024;54.068;12.116;2023-10-31T03:11:25;9.71;118.99
584;HTU21D;27024;54.068;12.116;2023-10-31T03:13:53;9.70;118.99
584;HTU21D;27024;54.068;12.116;2023-10-31T03:16:23;9.70;118.99
584;HTU21D;27024;54.068;12.116;2023-10-31T03:18:51;9.77;118.99
584;HTU21D;27024;54.068;12.116;2023-10-31T03:21:17;9.78;118.99
584;HTU21D;27024;54.068;12.116;2023-10-31T03:23:49;9.80;118.99
584;HTU21D;27024;54.068;12.116;2023-10-31T03:26:17;9.78;118.99
584;HTU21D;27024;54.068;12.116;2023-10-31T03:28:44;9.79;118.99
584;HTU21D;27024;54.068;12.116;2023-10-31T03:31:12;9.83;118.99
584;HTU21D;27024;54.068;12.116;2023-10-31T03:33:40;9.85;118.99
584;HTU21D;27024;54.068;12.116;2023-10-31T03:36:08;9.84;118.99
584;HTU21D;27024;54.068;12.116;2023-10-31T03:38:35;9.76;118.99
584;HTU21D;27024;54.068;12.116;2023-10-31T03:41:03;9.77;118.99
584;HTU21D;27024;54.068;12.116;2023-10-31T03:43:30;9.76;118.99
584;HTU21D;27024;54.068;12.116;2023-10-31T03:45:57;9.64;118.99
584;HTU21D;27024;54.068;12.116;2023-10-31T03:48:24;9.69;118.99
584;HTU21D;27024;54.068;12.116;2023-10-31T03:50:51;9.69;118.99
584;HTU21D;27024;54.068;12.116;2023-10-31T03:53:18;9.70;118.99
584;HTU21D;27024;54.068;12.116;2023-10-31T03:55:45;9.76;118.99
584;HTU21D;27024;54.068;12.116;2023-10-31T03:58:12;9.71;118.99
584;HTU21D;27024;54.068;12.116;2023-10-31T04:00:39;9.77;118.99
584;HTU21D;27024;54.068;12.116;2023-10-31T04:03:07;9.71;118.99
584;HTU21D;27024;54.068;12.116;2023-10-31T04:05:34;9.72;118.99
584;HTU21D;27024;54.068;12.116;2023-10-31T04:08:02;9.68;118.99
584;HTU21D;27024;54.068;12.116;2023-10-31T04:10:28;9.78;118.99
584;HTU21D;27024;54.068;12.116;2023-10-31T04:12:55;9.77;118.99
584;HTU21D;27024;54.068;12.116;2023-10-31T04:15:22;9.75;118.99
584;HTU21D;27024;54.068;12.116;2023-10-31T04:17:49;9.80;118.99
584;HTU21D;27024;54.068;12.116;2023-10-31T04:20:16;9.78;118.99
584;HTU21D;27024;54.068;12.116;2023-10-31T04:22:43;9.71;118.99
584;HTU21D;27024;54.068;12.116;2023-10-31T04:25:10;9.79;118.99
584;HTU21D;27024;54.068;12.116;2023-10-31T04:27:36;9.72;118.99
584;HTU21D;27024;54.068;12.116;2023-10-31T04:30:04;9.76;118.99
584;HTU21D;27024;54.068;12.116;2023-10-31T04:32:31;9.72;118.99
584;HTU21D;27024;54.068;12.116;2023-10-31T04:34:58;9.74;118.99
584;HTU21D;27024;54.068;12.116;2023-10-31T04:37:25;9.76;118.99
584;HTU21D;27024;54.068;12.116;2023-10-31T04:39:52;9.74;118.99
584;HTU21D;27024;54.068;12.116;2023-10-31T04:42:18;9.75;118.99
584;HTU21D;27024;54.068;12.116;2023-10-31T04:44:48;9.79;118.99
584;HTU21D;27024;54.068;12.116;2023-10-31T04:47:15;9.83;118.99
584;HTU21D;27024;54.068;12.116;2023-10-31T04:49:42;9.84;118.99
584;HTU21D;27024;54.068;12.116;2023-10-31T04:52:09;9.85;118.99
584;HTU21D;27024;54.068;12.116;2023-10-31T04:54:36;9.82;118.99
584;HTU21D;27024;54.068;12.116;2023-10-31T04:57:03;9.88;118.99
584;HTU21D;27024;54.068;12.116;2023-10-31T04:59:30;9.82;118.99
584;HTU21D;27024;54.068;12.116;2023-10-31T05:01:58;9.90;118.99
584;HTU21D;27024;54.068;12.116;2023-10-31T05:04:25;9.92;118.99
584;HTU21D;27024;54.068;12.116;2023-10-31T05:06:52;9.89;118.99
584;HTU21D;27024;54.068;12.116;2023-10-31T05:09:19;9.88;118.99
584;HTU21D;27024;54.068;12.116;2023-10-31T05:11:47;9.91;118.99
584;HTU21D;27024;54.068;12.116;2023-10-31T05:14:14;9.90;118.99
584;HTU21D;27024;54.068;12.116;2023-10-31T05:16:42;9.89;118.99
584;HTU21D;27024;54.068;12.116;2023-10-31T05:19:09;9.92;118.99
584;HTU21D;27024;54.068;12.116;2023-10-31T05:21:37;9.89;118.99
584;HTU21D;27024;54.068;12.116;2023-10-31T05:24:04;9.94;118.99
584;HTU21D;27024;54.068;12.116;2023-10-31T05:26:31;9.95;118.99
584;HTU21D;27024;54.068;12.116;2023-10-31T05:28:58;9.97;118.99
584;HTU21D;27024;54.068;12.116;2023-10-31T05:31:25;10.01;118.99
584;HTU21D;27024;54.068;12.116;2023-10-31T05:33:52;10.01;118.99
584;HTU21D;27024;54.068;12.116;2023-10-31T05:36:23;9.96;118.99
584;HTU21D;27024;54.068;12.116;2023-10-31T05:38:51;9.99;118.99
584;HTU21D;27024;54.068;12.116;2023-10-31T05:41:17;10.04;118.99
584;HTU21D;27024;54.068;12.116;2023-10-31T05:43:44;10.00;118.99
584;HTU21D;27024;54.068;12.116;2023-10-31T05:46:11;10.07;118.99
584;HTU21D;27024;54.068;12.116;2023-10-31T05:48:44;10.07;118.99
584;HTU21D;27024;54.068;12.116;2023-10-31T05:51:12;10.10;118.99
584;HTU21D;27024;54.068;12.116;2023-10-31T05:53:41;10.09;118.99
584;HTU21D;27024;54.068;12.116;2023-10-31T05:56:09;10.10;118.99
584;HTU21D;27024;54.068;12.116;2023-10-31T05:58:37;10.10;118.99
584;HTU21D;27024;54.068;12.116;2023-10-31T06:01:05;10.12;118.99
584;HTU21D;27024;54.068;12.116;2023-10-31T06:03:32;10.14;118.99
584;HTU21D;27024;54.068;12.116;2023-10-31T06:06:00;10.12;118.99
584;HTU21D;27024;54.068;12.116;2023-10-31T06:08:26;10.07;118.99
584;HTU21D;27024;54.068;12.116;2023-10-31T06:10:56;10.07;118.99
584;HTU21D;27024;54.068;12.116;2023-10-31T06:13:24;10.00;118.99
584;HTU21D;27024;54.068;12.116;2023-10-31T06:15:54;10.06;118.99
584;HTU21D;27024;54.068;12.116;2023-10-31T06:18:27;10.09;118.99
584;HTU21D;27024;54.068;12.116;2023-10-31T06:20:54;10.06;118.99
584;HTU21D;27024;54.068;12.116;2023-10-31T06:23:21;10.08;118.99
584;HTU21D;27024;54.068;12.116;2023-10-31T06:25:48;10.11;118.99
584;HTU21D;27024;54.068;12.116;2023-10-31T06:28:15;10.22;118.99
584;HTU21D;27024;54.068;12.116;2023-10-31T06:30:42;10.21;118.99
584;HTU21D;27024;54.068;12.116;2023-10-31T06:33:09;10.27;118.99
584;HTU21D;27024;54.068;12.116;2023-10-31T06:35:37;10.28;118.99
584;HTU21D;27024;54.068;12.116;2023-10-31T06:38:04;10.30;118.99
584;HTU21D;27024;54.068;12.116;2023-10-31T06:40:31;10.27;118.99
584;HTU21D;27024;54.068;12.116;2023-10-31T06:42:58;10.25;118.99
584;HTU21D;27024;54.068;12.116;2023-10-31T06:45:25;10.24;118.99
584;HTU21D;27024;54.068;12.116;2023-10-31T06:47:53;10.26;118.99
584;HTU21D;27024;54.068;12.116;2023-10-31T06:50:20;10.28;118.99
584;HTU21D;27024;54.068;12.116;2023-10-31T06:52:47;10.31;118.99
584;HTU21D;27024;54.068;12.116;2023-10-31T06:55:15;10.33;118.99
584;HTU21D;27024;54.068;12.116;2023-10-31T06:57:41;10.68;118.99
584;HTU21D;27024;54.068;12.116;2023-10-31T07:00:11;10.49;118.99
584;HTU21D;27024;54.068;12.116;2023-10-31T07:02:38;10.36;118.99
584;HTU21D;27024;54.068;12.116;2023-10-31T07:05:05;10.39;118.99
584;HTU21D;27024;54.068;12.116;2023-10-31T07:07:32;10.44;118.99
584;HTU21D;27024;54.068;12.116;2023-10-31T07:09:59;10.46;118.99
584;HTU21D;27024;54.068;12.116;2023-10-31T07:12:26;10.45;118.99
584;HTU21D;27024;54.068;12.116;2023-10-31T07:14:53;10.46;118.99
584;HTU21D;27024;54.068;12.116;2023-10-31T07:17:20;10.49;118.99
584;HTU21D;27024;54.068;12.116;2023-10-31T07:19:47;10.51;118.99
584;HTU21D;27024;54.068;12.116;2023-10-31T07:22:14;10.55;118.99
584;HTU21D;27024;54.068;12.116;2023-10-31T07:24:41;10.57;118.99
584;HTU21D;27024;54.068;12.116;2023-10-31T07:27:10;10.57;118.99
584;HTU21D;27024;54.068;12.116;2023-10-31T07:29:40;10.58;118.99
584;HTU21D;27024;54.068;12.116;2023-10-31T07:32:08;10.67;118.99
584;HTU21D;27024;54.068;12.116;2023-10-31T07:34:39;10.72;118.99
584;HTU21D;27024;54.068;12.116;2023-10-31T07:37:06;10.68;118.99
584;HTU21D;27024;54.068;12.116;2023-10-31T07:39:33;10.69;118.99
584;HTU21D;27024;54.068;12.116;2023-10-31T07:42:00;10.75;118.99
584;HTU21D;27024;54.068;12.116;2023-10-31T07:44:27;10.79;118.99
584;HTU21D;27024;54.068;12.116;2023-10-31T07:46:55;10.79;118.99
584;HTU21D;27024;54.068;12.116;2023-10-31T07:49:22;10.87;118.99
584;HTU21D;27024;54.068;12.116;2023-10-31T07:51:49;10.94;118.99
584;HTU21D;27024;54.068;12.116;2023-10-31T07:54:16;10.92;118.99
584;HTU21D;27024;54.068;12.116;2023-10-31T07:56:43;10.95;118.99
584;HTU21D;27024;54.068;12.116;2023-10-31T07:59:10;10.94;118.99
584;HTU21D;27024;54.068;12.116;2023-10-31T08:01:38;10.94;118.99
584;HTU21D;27024;54.068;12.116;2023-10-31T08:04:05;10.93;118.99
584;HTU21D;27024;54.068;12.116;2023-10-31T08:06:32;10.95;118.99
584;HTU21D;27024;54.068;12.116;2023-10-31T08:08:59;10.95;118.99
584;HTU21D;27024;54.068;12.116;2023-10-31T08:11:26;11.04;118.99
584;HTU21D;27024;54.068;12.116;2023-10-31T08:13:53;11.04;118.99
584;HTU21D;27024;54.068;12.116;2023-10-31T08:16:20;11.13;118.99
584;HTU21D;27024;54.068;12.116;2023-10-31T08:18:48;11.10;118.99
584;HTU21D;27024;54.068;12.116;2023-10-31T08:21:15;11.12;118.99
584;HTU21D;27024;54.068;12.116;2023-10-31T08:23:42;11.13;118.99
584;HTU21D;27024;54.068;12.116;2023-10-31T08:26:11;11.19;118.99
584;HTU21D;27024;54.068;12.116;2023-10-31T08:28:40;11.28;118.99
584;HTU21D;27024;54.068;12.116;2023-10-31T08:31:07;11.29;118.99
584;HTU21D;27024;54.068;12.116;2023-10-31T08:33:34;11.32;118.99
584;HTU21D;27024;54.068;12.116;2023-10-31T08:36:02;11.34;118.99
584;HTU21D;27024;54.068;12.116;2023-10-31T08:38:29;11.36;118.99
584;HTU21D;27024;54.068;12.116;2023-10-31T08:40:58;11.42;118.99
584;HTU21D;27024;54.068;12.116;2023-10-31T08:43:25;11.36;118.99
584;HTU21D;27024;54.068;12.116;2023-10-31T08:45:52;11.40;118.99
584;HTU21D;27024;54.068;12.116;2023-10-31T08:48:19;11.39;118.99
584;HTU21D;27024;54.068;12.116;2023-10-31T08:50:46;11.45;118.99
584;HTU21D;27024;54.068;12.116;2023-10-31T08:53:13;11.43;118.99
584;HTU21D;27024;54.068;12.116;2023-10-31T08:55:40;11.42;118.99
584;HTU21D;27024;54.068;12.116;2023-10-31T08:58:14;11.59;118.99
584;HTU21D;27024;54.068;12.116;2023-10-31T09:00:41;11.46;118.99
584;HTU21D;27024;54.068;12.116;2023-10-31T09:03:08;11.44;118.99
584;HTU21D;27024;54.068;12.116;2023-10-31T09:05:36;11.49;118.99
584;HTU21D;27024;54.068;12.116;2023-10-31T09:08:03;11.46;118.99
584;HTU21D;27024;54.068;12.116;2023-10-31T09:10:30;11.48;118.99
584;HTU21D;27024;54.068;12.116;2023-10-31T09:12:57;11.51;118.99
584;HTU21D;27024;54.068;12.116;2023-10-31T09:15:24;11.48;118.99
584;HTU21D;27024;54.068;12.116;2023-10-31T09:17:50;11.76;118.99
584;HTU21D;27024;54.068;12.116;2023-10-31T09:20:18;11.55;118.99
584;HTU21D;27024;54.068;12.116;2023-10-31T09:22:45;11.48;118.99
584;HTU21D;27024;54.068;12.116;2023-10-31T09:25:12;11.52;118.99
584;HTU21D;27024;54.068;12.116;2023-10-31T09:27:40;11.59;118.99
584;HTU21D;27024;54.068;12.116;2023-10-31T09:30:07;11.55;118.99
584;HTU21D;27024;54.068;12.116;2023-10-31T09:32:35;11.54;118.99
584;HTU21D;27024;54.068;12.116;2023-10-31T09:35:02;11.58;118.99
584;HTU21D;27024;54.068;12.116;2023-10-31T09:37:29;11.53;118.99
584;HTU21D;27024;54.068;12.116;2023-10-31T09:39:56;11.53;118.99
584;HTU21D;27024;54.068;12.116;2023-10-31T09:42:23;11.55;118.99
584;HTU21D;27024;54.068;12.116;2023-10-31T09:44:50;11.53;118.99
584;HTU21D;27024;54.068;12.116;2023-10-31T09:47:20;11.55;118.99
584;HTU21D;27024;54.068;12.116;2023-10-31T09:49:47;11.41;118.99
584;HTU21D;27024;54.068;12.116;2023-10-31T09:52:14;11.41;118.99
584;HTU21D;27024;54.068;12.116;2023-10-31T09:54:41;11.26;118.99
584;HTU21D;27024;54.068;12.116;2023-10-31T09:57:14;11.22;118.99
584;HTU21D;27024;54.068;12.116;2023-10-31T09:59:41;11.24;118.99
584;HTU21D;27024;54.068;12.116;2023-10-31T10:02:08;11.19;118.99
584;HTU21D;27024;54.068;12.116;2023-10-31T10:04:37;11.27;118.99
584;HTU21D;27024;54.068;12.116;2023-10-31T10:07:05;11.29;118.99
584;HTU21D;27024;54.068;12.116;2023-10-31T10:09:32;11.33;118.99
584;HTU21D;27024;54.068;12.116;2023-10-31T10:12:00;11.29;118.99
584;HTU21D;27024;54.068;12.116;2023-10-31T10:14:27;11.17;118.99
584;HTU21D;27024;54.068;12.116;2023-10-31T10:16:59;11.15;118.99
584;HTU21D;27024;54.068;12.116;2023-10-31T10:19:26;11.12;118.99
584;HTU21D;27024;54.068;12.116;2023-10-31T10:21:55;11.15;118.99
584;HTU21D;27024;54.068;12.116;2023-10-31T10:24:23;11.13;118.99
584;HTU21D;27024;54.068;12.116;2023-10-31T10:26:51;11.11;118.99
584;HTU21D;27024;54.068;12.116;2023-10-31T10:29:18;11.10;118.99
584;HTU21D;27024;54.068;12.116;2023-10-31T10:31:45;11.09;118.99
584;HTU21D;27024;54.068;12.116;2023-10-31T10:34:16;11.08;118.99
584;HTU21D;27024;54.068;12.116;2023-10-31T10:36:47;11.02;118.99
584;HTU21D;27024;54.068;12.116;2023-10-31T10:39:22;11.04;118.99
584;HTU21D;27024;54.068;12.116;2023-10-31T10:41:55;11.09;118.99
584;HTU21D;27024;54.068;12.116;2023-10-31T10:44:31;11.08;118.99
584;HTU21D;27024;54.068;12.116;2023-10-31T10:47:02;11.00;118.99
584;HTU21D;27024;54.068;12.116;2023-10-31T10:49:33;11.01;118.99
584;HTU21D;27024;54.068;12.116;2023-10-31T10:52:22;10.93;118.99
584;HTU21D;27024;54.068;12.116;2023-10-31T10:55:00;10.89;118.99
584;HTU21D;27024;54.068;12.116;2023-10-31T10:57:54;10.94;118.99
584;HTU21D;27024;54.068;12.116;2023-10-31T11:00:23;10.85;118.99
584;HTU21D;27024;54.068;12.116;2023-10-31T11:02:52;10.86;118.99
584;HTU21D;27024;54.068;12.116;2023-10-31T11:05:20;10.89;118.99
584;HTU21D;27024;54.068;12.116;2023-10-31T11:07:48;10.89;118.99
584;HTU21D;27024;54.068;12.116;2023-10-31T11:10:17;10.84;118.99
584;HTU21D;27024;54.068;12.116;2023-10-31T11:12:44;10.90;118.99
584;HTU21D;27024;54.068;12.116;2023-10-31T11:15:15;10.86;118.99
584;HTU21D;27024;54.068;12.116;2023-10-31T11:17:44;10.82;118.99
584;HTU21D;27024;54.068;12.116;2023-10-31T11:20:13;10.86;118.99
584;HTU21D;27024;54.068;12.116;2023-10-31T11:22:45;10.86;118.99
584;HTU21D;27024;54.068;12.116;2023-10-31T11:25:13;10.84;118.99
584;HTU21D;27024;54.068;12.116;2023-10-31T11:27:53;10.83;118.99
584;HTU21D;27024;54.068;12.116;2023-10-31T11:30:30;10.80;118.99
584;HTU21D;27024;54.068;12.116;2023-10-31T11:32:58;10.75;118.99
584;HTU21D;27024;54.068;12.116;2023-10-31T11:35:29;10.78;118.99
584;HTU21D;27024;54.068;12.116;2023-10-31T11:38:05;10.77;118.99
584;HTU21D;27024;54.068;12.116;2023-10-31T11:40:36;10.77;118.99
584;HTU21D;27024;54.068;12.116;2023-10-31T11:43:05;10.72;118.99
584;HTU21D;27024;54.068;12.116;2023-10-31T11:48:07;10.72;118.99
584;HTU21D;27024;54.068;12.116;2023-10-31T11:50:36;10.71;118.99
584;HTU21D;27024;54.068;12.116;2023-10-31T11:55:36;10.74;118.99
584;HTU21D;27024;54.068;12.116;2023-10-31T11:58:21;10.65;118.99
584;HTU21D;27024;54.068;12.116;2023-10-31T12:01:00;10.66;118.99
584;HTU21D;27024;54.068;12.116;2023-10-31T12:03:36;10.71;118.99
584;HTU21D;27024;54.068;12.116;2023-10-31T12:06:04;10.72;118.99
584;HTU21D;27024;54.068;12.116;2023-10-31T12:08:33;10.69;118.99
584;HTU21D;27024;54.068;12.116;2023-10-31T12:11:21;10.73;118.99
584;HTU21D;27024;54.068;12.116;2023-10-31T12:13:54;10.69;118.99
584;HTU21D;27024;54.068;12.116;2023-10-31T12:16:26;10.72;118.99
584;HTU21D;27024;54.068;12.116;2023-10-31T12:19:03;10.70;118.99
584;HTU21D;27024;54.068;12.116;2023-10-31T12:21:44;10.67;118.99
584;HTU21D;27024;54.068;12.116;2023-10-31T12:24:15;10.66;118.99
584;HTU21D;27024;54.068;12.116;2023-10-31T12:26:42;10.64;118.99
584;HTU21D;27024;54.068;12.116;2023-10-31T12:29:19;10.56;118.99
584;HTU21D;27024;54.068;12.116;2023-10-31T12:31:48;10.59;118.99
584;HTU21D;27024;54.068;12.116;2023-10-31T12:34:17;10.58;118.99
584;HTU21D;27024;54.068;12.116;2023-10-31T12:36:46;10.63;118.99
584;HTU21D;27024;54.068;12.116;2023-10-31T12:39:14;10.44;118.99
584;HTU21D;27024;54.068;12.116;2023-10-31T12:41:42;10.27;118.99
584;HTU21D;27024;54.068;12.116;2023-10-31T12:44:11;9.96;118.99
584;HTU21D;27024;54.068;12.116;2023-10-31T12:46:40;9.78;118.99
584;HTU21D;27024;54.068;12.116;2023-10-31T12:49:11;9.60;118.99
584;HTU21D;27024;54.068;12.116;2023-10-31T12:52:04;9.53;118.99
584;HTU21D;27024;54.068;12.116;2023-10-31T12:57:04;9.14;118.99
584;HTU21D;27024;54.068;12.116;2023-10-31T12:59:36;9.02;118.99
584;HTU21D;27024;54.068;12.116;2023-10-31T13:02:06;9.04;118.99
584;HTU21D;27024;54.068;12.116;2023-10-31T13:04:33;8.85;118.99
584;HTU21D;27024;54.068;12.116;2023-10-31T13:07:10;8.71;118.99
584;HTU21D;27024;54.068;12.116;2023-10-31T13:09:37;8.71;118.99
584;HTU21D;27024;54.068;12.116;2023-10-31T13:12:09;8.70;118.99
584;HTU21D;27024;54.068;12.116;2023-10-31T13:14:38;8.62;118.99
584;HTU21D;27024;54.068;12.116;2023-10-31T13:17:06;8.55;118.99
584;HTU21D;27024;54.068;12.116;2023-10-31T13:19:33;8.61;118.99
584;HTU21D;27024;54.068;12.116;2023-10-31T13:22:00;8.60;118.99
584;HTU21D;27024;54.068;12.116;2023-10-31T13:24:27;8.58;118.99
584;HTU21D;27024;54.068;12.116;2023-10-31T13:26:54;8.47;118.99
584;HTU21D;27024;54.068;12.116;2023-10-31T13:29:21;8.45;118.99
584;HTU21D;27024;54.068;12.116;2023-10-31T13:31:48;8.41;118.99
584;HTU21D;27024;54.068;12.116;2023-10-31T13:34:15;8.36;118.99
584;HTU21D;27024;54.068;12.116;2023-10-31T13:36:42;8.43;118.99
584;HTU21D;27024;54.068;12.116;2023-10-31T13:39:11;8.42;118.99
584;HTU21D;27024;54.068;12.116;2023-10-31T13:41:38;8.41;118.99
584;HTU21D;27024;54.068;12.116;2023-10-31T13:44:05;8.36;118.99
584;HTU21D;27024;54.068;12.116;2023-10-31T13:46:32;8.37;118.99
584;HTU21D;27024;54.068;12.116;2023-10-31T13:48:59;8.37;118.99
584;HTU21D;27024;54.068;12.116;2023-10-31T13:51:26;8.26;118.99
584;HTU21D;27024;54.068;12.116;2023-10-31T13:53:52;8.26;118.99
584;HTU21D;27024;54.068;12.116;2023-10-31T13:56:19;8.28;118.99
584;HTU21D;27024;54.068;12.116;2023-10-31T13:58:46;8.33;118.99
584;HTU21D;27024;54.068;12.116;2023-10-31T14:01:14;8.27;118.99
584;HTU21D;27024;54.068;12.116;2023-10-31T14:03:41;8.26;118.99
584;HTU21D;27024;54.068;12.116;2023-10-31T14:06:11;8.30;118.99
584;HTU21D;27024;54.068;12.116;2023-10-31T14:08:39;8.23;118.99
584;HTU21D;27024;54.068;12.116;2023-10-31T14:11:06;8.18;118.99
584;HTU21D;27024;54.068;12.116;2023-10-31T14:13:32;8.19;118.99
584;HTU21D;27024;54.068;12.116;2023-10-31T14:15:59;8.17;118.99
584;HTU21D;27024;54.068;12.116;2023-10-31T14:18:26;8.19;118.99
584;HTU21D;27024;54.068;12.116;2023-10-31T14:20:53;8.18;118.99
584;HTU21D;27024;54.068;12.116;2023-10-31T14:23:20;8.26;118.99
584;HTU21D;27024;54.068;12.116;2023-10-31T14:25:47;8.12;118.99
584;HTU21D;27024;54.068;12.116;2023-10-31T14:28:14;8.07;118.99
584;HTU21D;27024;54.068;12.116;2023-10-31T14:30:41;8.06;118.99
584;HTU21D;27024;54.068;12.116;2023-10-31T14:33:08;8.02;118.99
584;HTU21D;27024;54.068;12.116;2023-10-31T14:35:35;8.07;118.99
584;HTU21D;27024;54.068;12.116;2023-10-31T14:38:02;7.97;118.99
584;HTU21D;27024;54.068;12.116;2023-10-31T14:40:29;7.98;118.99
584;HTU21D;27024;54.068;12.116;2023-10-31T14:42:57;7.93;118.99
584;HTU21D;27024;54.068;12.116;2023-10-31T14:45:24;7.98;118.99
584;HTU21D;27024;54.068;12.116;2023-10-31T14:47:50;7.99;118.99
584;HTU21D;27024;54.068;12.116;2023-10-31T14:50:19;7.83;118.99
584;HTU21D;27024;54.068;12.116;2023-10-31T14:52:47;7.85;118.99
584;HTU21D;27024;54.068;12.116;2023-10-31T14:55:14;7.83;118.99
584;HTU21D;27024;54.068;12.116;2023-10-31T14:57:42;7.86;118.99
584;HTU21D;27024;54.068;12.116;2023-10-31T15:00:09;7.78;118.99
584;HTU21D;27024;54.068;12.116;2023-10-31T15:02:38;7.85;118.99
584;HTU21D;27024;54.068;12.116;2023-10-31T15:05:05;7.83;118.99
584;HTU21D;27024;54.068;12.116;2023-10-31T15:07:32;7.73;118.99
584;HTU21D;27024;54.068;12.116;2023-10-31T15:09:59;7.70;118.99
584;HTU21D;27024;54.068;12.116;2023-10-31T15:12:26;7.62;118.99
584;HTU21D;27024;54.068;12.116;2023-10-31T15:14:53;7.65;118.99
584;HTU21D;27024;54.068;12.116;2023-10-31T15:17:21;7.53;118.99
584;HTU21D;27024;54.068;12.116;2023-10-31T15:19:48;7.48;118.99
584;HTU21D;27024;54.068;12.116;2023-10-31T15:22:15;7.35;118.99
584;HTU21D;27024;54.068;12.116;2023-10-31T15:24:42;7.38;118.99
584;HTU21D;27024;54.068;12.116;2023-10-31T15:27:09;7.38;118.99
584;HTU21D;27024;54.068;12.116;2023-10-31T15:29:36;7.28;118.99
584;HTU21D;27024;54.068;12.116;2023-10-31T15:32:05;7.33;118.99
584;HTU21D;27024;54.068;12.116;2023-10-31T15:34:32;7.40;118.99
584;HTU21D;27024;54.068;12.116;2023-10-31T15:36:59;7.38;118.99
584;HTU21D;27024;54.068;12.116;2023-10-31T15:39:26;7.32;118.99